• Join FlightAware (Why Join?)
  • Login
  • US Flag 
07:57PM EDT


 

Airport Tracker/Info


-or-


 

Live Flight TrackerFlight Track Log ✈ SWA652 ✈ 19-Jun-2013 ✈ KOMA - KLAS

Flight Track Log - Related Links

Times and Time Zones

All times are in EDT time to prevent confusion due to time zone crossing. See the SWA652 flight status page for this flight to view local times or setup timezone preferences in your user account.

Time Position Orientation Groundspeed Altitude Reporting Facility
EDT Latitude Longitude Course Direction KTS MPH feet Rate Location/Type
08:44AM 41.2903 -95.8842 237° Southwest 156 180 1,700  Level Minneapolis Center
08:45AM 41.2400 -95.8844 180° South 202 232 3,600 2,160 Climbing Minneapolis Center
08:46AM 41.1756 -95.8892 183° South 224 258 6,200 2,400 Climbing Minneapolis Center
08:48AM 41.0944 -95.9042 188° South 242 278 9,400 2,100 Climbing Minneapolis Center
08:49AM 41.0603 -96.0014 245° Southwest 287 330 11,400 1,920 Climbing Minneapolis Center
08:50AM 40.9713 -96.6074 237° Southwest  Level FlightAware Approximate
08:50AM 41.0378 -96.1014 253° West 332 382 13,400  Level Minneapolis Center
08:51AM 41.0108 -96.2642 258° West 367 422 16,600 2,760 Climbing Minneapolis Center
08:52AM 40.9839 -96.4094 256° West 392 451 19,200 2,580 Climbing Minneapolis Center
08:53AM 40.9575 -96.5561 257° West 405 466 22,000 2,460 Climbing Minneapolis Center
08:54AM 40.9306 -96.7039 256° West 410 472 24,400 2,280 Climbing Minneapolis Center
08:55AM 40.9083 -96.8911 261° West 425 489 26,800 1,980 Climbing Minneapolis Center
08:56AM 40.8933 -97.0503 263° West 432 497 28,500 1,920 Climbing Minneapolis Center
08:57AM 40.8781 -97.2125 263° West 441 507 30,800 1,980 Climbing Minneapolis Center
08:58AM 40.8628 -97.3731 263° West 435 501 32,700 1,560 Climbing Minneapolis Center
08:59AM 40.8497 -97.4981 262° West 431 496 34,100 1,980 Climbing Minneapolis Center
09:00AM 40.8308 -97.6797 262° West 418 481 36,800 1,860 Climbing Minneapolis Center
09:01AM 40.8167 -97.8217 263° West 397 457 38,000 540 Climbing Minneapolis Center
09:02AM 40.7994 -97.9928 262° West 391 450 38,000  Level Minneapolis Center
09:03AM 40.7844 -98.1361 262° West 392 451 38,000  Level Minneapolis Center
09:04AM 40.7683 -98.2806 262° West 395 455 38,000  Level Minneapolis Center
09:05AM 40.7522 -98.4256 262° West 396 456 38,000  Level Minneapolis Center
09:06AM 40.7367 -98.5722 262° West 399 459 38,000  Level Minneapolis Center
09:07AM 40.7200 -98.7186 262° West 400 460 38,000  Level Minneapolis Center
09:08AM 40.7039 -98.8664 262° West 402 463 38,000  Level Minneapolis Center
09:09AM 40.6886 -99.0133 262° West 402 463 38,000  Level Minneapolis Center
09:10AM 40.6711 -99.1606 261° West 403 464 38,000  Level Minneapolis Center
09:11AM 40.6514 -99.3356 262° West 402 463 38,000  Level Minneapolis Center
09:12AM 40.6478 -99.3644 261° West 401 461 38,000  Level Denver Center
09:13AM 40.6231 -99.5678 261° West 401 461 38,000  Level Denver Center
09:14AM 40.6064 -99.7131 261° West 400 460 38,000  Level Denver Center
09:15AM 40.5883 -99.8572 261° West 399 459 38,000  Level Denver Center
09:16AM 40.5694 -100.0078 261° West 397 457 38,000  Level Denver Center
09:17AM 40.5528 -100.1481 261° West 402 463 38,000  Level Denver Center
09:18AM 40.5353 -100.2881 261° West 404 465 38,000  Level Denver Center
09:19AM 40.5136 -100.4522 260° West 406 467 38,000  Level Denver Center
09:20AM 40.4956 -100.5956 261° West 410 472 38,000  Level Denver Center
09:21AM 40.4767 -100.7400 260° West 415 478 38,000  Level Denver Center
09:22AM 40.4556 -100.9106 261° West 420 483 38,000  Level Denver Center
09:23AM 40.4358 -101.0561 260° West 421 484 38,000  Level Denver Center
09:24AM 40.4161 -101.1989 260° West 415 478 38,000  Level Denver Center
09:25AM 40.3931 -101.3639 260° West 411 473 38,000  Level Denver Center
09:26AM 40.3742 -101.5058 260° West 413 475 38,000  Level Denver Center
09:27AM 40.3478 -101.6919 260° West 408 470 38,000  Level Denver Center
09:28AM 40.3283 -101.8319 260° West 409 471 38,000  Level Denver Center
09:29AM 40.3069 -101.9717 259° West 409 471 38,000  Level Denver Center
09:30AM 40.2839 -102.1358 260° West 409 471 38,000  Level Denver Center
09:31AM 40.2639 -102.2756 259° West 408 470 38,000  Level Denver Center
09:32AM 40.2436 -102.4144 259° West 405 466 38,000  Level Denver Center
09:34AM 40.2192 -102.5739 259° West 401 461 38,000  Level Denver Center
09:35AM 40.1994 -102.7072 259° West 404 465 38,000  Level Denver Center
09:36AM 40.1783 -102.8500 259° West 400 460 38,000  Level Denver Center
09:37AM 40.1550 -102.9919 258° West 401 461 38,000  Level Denver Center
09:38AM 40.1303 -103.1633 259° West 401 461 38,000  Level Denver Center
09:39AM 40.1075 -103.3039 258° West 400 460 38,000  Level Denver Center
09:40AM 40.0894 -103.4178 258° West 399 459 38,000  Level Denver Center
09:41AM 40.0631 -103.5900 259° West 404 465 38,000  Level Denver Center
09:42AM 40.0406 -103.7342 259° West 410 472 38,000  Level Denver Center
09:43AM 40.0175 -103.8781 258° West 402 463 38,000  Level Denver Center
09:44AM 39.9944 -104.0197 258° West 402 463 38,000  Level Denver Center
09:45AM 39.9714 -104.1639 258° West 406 467 38,000  Level Denver Center
09:46AM 39.9481 -104.3064 258° West 403 464 38,000  Level Denver Center
09:47AM 39.9189 -104.4797 258° West 410 472 38,000  Level Denver Center
09:48AM 39.8958 -104.6233 258° West 410 472 38,000  Level Denver Center
09:49AM 39.8683 -104.7631 256° West 406 467 38,000  Level Denver Center
09:50AM 39.8406 -104.9061 256° West 403 464 38,000  Level Denver Center
09:51AM 39.8136 -105.0469 256° West 401 461 38,000  Level Denver Center
09:52AM 39.7858 -105.1858 255° West 400 460 38,000  Level Denver Center
09:53AM 39.7525 -105.3544 256° West 406 467 38,000  Level Denver Center
09:54AM 39.7200 -105.5225 256° West 396 456 38,000  Level Denver Center
09:55AM 39.6914 -105.6639 255° West 403 464 38,000  Level Denver Center
09:56AM 39.6622 -105.8058 255° West 408 470 38,000  Level Denver Center
09:57AM 39.6350 -105.9456 256° West 403 464 38,000  Level Denver Center
09:58AM 39.6069 -106.0889 256° West 410 472 38,000  Level Denver Center
09:59AM 39.5794 -106.2236 255° West 408 470 38,000  Level Denver Center
10:00AM 39.5506 -106.3656 255° West 407 468 38,000  Level Denver Center
10:01AM 39.5172 -106.5208 254° West 407 468 38,000  Level Denver Center
10:02AM 39.4847 -106.6783 255° West 407 468 38,000  Level Denver Center
10:03AM 39.4556 -106.8128 254° West 406 467 38,000  Level Denver Center
10:04AM 39.4197 -106.9689 253° West 405 466 38,000  Level Denver Center
10:05AM 39.3881 -107.0997 253° West 400 460 38,000  Level Denver Center
10:06AM 39.3547 -107.2317 252° West 402 463 38,000  Level Denver Center
10:07AM 39.3156 -107.3828 252° West 397 457 38,000  Level Denver Center
10:08AM 39.2833 -107.5119 252° West 395 455 38,000  Level Denver Center
10:09AM 39.2444 -107.6625 252° West 395 455 38,000  Level Denver Center
10:11AM 39.2111 -107.7939 252° West 398 458 38,000  Level Denver Center
10:12AM 39.1769 -107.9250 251° West 403 464 38,000  Level Denver Center
10:13AM 39.1381 -108.0764 252° West 397 457 38,000  Level Denver Center
10:14AM 39.1044 -108.2069 252° West 399 459 38,000  Level Denver Center
10:15AM 39.0636 -108.3589 251° West 402 463 38,000  Level Denver Center
10:16AM 39.0292 -108.4906 251° West 405 466 38,000  Level Denver Center
10:17AM 38.9950 -108.6183 251° West 395 455 38,000  Level Denver Center
10:18AM 38.9561 -108.7636 251° West 385 443 38,000  Level Denver Center
10:19AM 38.9217 -108.8889 251° West 387 445 38,000  Level Denver Center
10:20AM 38.8822 -109.0367 251° West 390 449 38,000  Level Denver Center
10:21AM 38.8475 -109.1622 250° West 388 447 38,000  Level Denver Center
10:22AM 38.8083 -109.3097 251° West 389 448 38,000  Level Denver Center
10:23AM 38.7742 -109.4333 251° West 386 444 38,000  Level Denver Center
10:24AM 38.7333 -109.5778 250° West 384 442 38,000  Level Denver Center
10:25AM 38.6997 -109.7006 251° West 384 442 38,000  Level Denver Center
10:26AM 38.6608 -109.8206 247° West 384 442 38,000  Level Denver Center
10:27AM 38.6000 -109.9506 239° Southwest 381 438 38,000  Level Denver Center
10:28AM 38.5489 -110.0633 240° Southwest 382 440 38,000  Level Denver Center
10:29AM 38.4883 -110.1925 239° Southwest 379 436 38,000  Level Denver Center
10:30AM 38.4372 -110.3050 240° Southwest 381 438 38,000  Level Denver Center
10:31AM 38.4031 -110.3814 240° Southwest 385 443 38,000 -60 Level Salt Lake Center
10:32AM 38.3422 -110.5133 240° Southwest 387 445 37,900 -540 Descending Salt Lake Center
10:33AM 38.2906 -110.6231 239° Southwest 380 437 36,900 -960 Descending Salt Lake Center
10:34AM 38.2289 -110.7539 239° Southwest 386 444 36,000 -480 Descending Salt Lake Center
10:35AM 38.1744 -110.8650 238° Southwest 386 444 36,000  Level Salt Lake Center
10:36AM 38.1197 -110.9808 239° Southwest 389 448 36,000  Level Salt Lake Center
10:37AM 38.0639 -111.0989 239° Southwest 391 450 36,000  Level Salt Lake Center
10:38AM 37.9978 -111.2408 239° Southwest 390 449 36,000 -180 Level Salt Lake Center
10:39AM 37.9411 -111.3594 239° Southwest 392 451 35,700 -660 Descending Salt Lake Center
10:40AM 37.8850 -111.4767 239° Southwest 391 450 34,700 -1,020 Descending Salt Lake Center
10:41AM 37.8278 -111.5944 238° Southwest 392 451 33,700 -1,020 Descending Salt Lake Center
10:42AM 37.7700 -111.7122 238° Southwest 394 453 32,700 -840 Descending Salt Lake Center
10:43AM 37.7117 -111.8311 238° Southwest 397 457 32,000 -360 Descending Salt Lake Center
10:44AM 37.6528 -111.9517 238° Southwest 402 463 32,000  Level Salt Lake Center
10:45AM 37.5822 -112.0958 238° Southwest 402 463 32,000  Level Salt Lake Center
10:46AM 37.5364 -112.1908 239° Southwest 401 461 32,000  Level Los Angeles Center
10:47AM 37.4678 -112.3292 238° Southwest 390 449 32,000  Level Salt Lake Center
10:48AM 37.4106 -112.4425 238° Southwest 385 443 32,000  Level Salt Lake Center
10:49AM 37.3533 -112.5553 237° Southwest 381 438 32,000 -300 Level Salt Lake Center
10:50AM 37.2967 -112.6692 238° Southwest 381 438 31,400 -780 Descending Salt Lake Center
10:51AM 37.2397 -112.7822 238° Southwest 381 438 30,400 -1,020 Descending Salt Lake Center
10:52AM 37.1825 -112.8953 238° Southwest 381 438 29,400 -1,020 Descending Salt Lake Center
10:53AM 37.1139 -113.0328 238° Southwest 385 443 28,300 -720 Descending Salt Lake Center
10:54AM 37.0553 -113.1472 237° Southwest 388 447 28,000 -180 Descending Salt Lake Center
10:56AM 36.9869 -113.2831 238° Southwest 385 443 28,000  Level Los Angeles Center
10:57AM 36.9281 -113.3978 237° Southwest 390 449 28,000  Level Los Angeles Center
10:58AM 36.8697 -113.5117 237° Southwest 389 448 28,000  Level Los Angeles Center
10:59AM 36.8114 -113.6261 238° Southwest 391 450 28,000 -180 Level Los Angeles Center
11:00AM 36.7525 -113.7406 237° Southwest 391 450 27,700 -1,620 Descending Los Angeles Center
11:01AM 36.6950 -113.8542 238° Southwest 389 448 24,700 -2,760 Descending Los Angeles Center
11:02AM 36.6392 -113.9619 237° Southwest 373 429 22,100 -2,760 Descending Los Angeles Center
11:03AM 36.5731 -114.0858 236° Southwest 361 415 19,000 -2,580 Descending Los Angeles Center
11:04AM 36.5256 -114.1886 240° Southwest 348 400 16,900 -2,040 Descending Los Angeles Center
11:05AM 36.4811 -114.2894 241° Southwest 322 371 15,000 -1,800 Descending Los Angeles Center
11:06AM 36.4422 -114.3756 241° Southwest 311 358 13,200 -1,560 Descending Los Angeles Center
11:07AM 36.4092 -114.4508 241° Southwest 302 348 12,200 -720 Descending Los Angeles Center
11:08AM 36.3431 -114.4947 208° Southwest 284 327 12,000 -600 Descending Los Angeles Center
11:09AM 36.2647 -114.5214 195° South 276 318 11,000 -960 Descending Los Angeles Center
11:10AM 36.2061 -114.5892 223° Southwest 267 307 10,000 -1,140 Descending Los Angeles Center
11:11AM 36.1658 -114.6614 235° Southwest 258 297 8,700 -1,020 Descending Los Angeles Center
11:12AM 36.1497 -114.7442 256° West 246 283 8,000 -600 Descending Los Angeles Center
11:13AM 36.1411 -114.8325 263° West 216 249 7,500 -540 Descending Los Angeles Center
11:14AM 36.1375 -114.8950 266° West 199 229 7,000 -780 Descending Los Angeles Center
11:15AM 36.1322 -114.9606 264° West 192 221 6,000 -1,140 Descending Los Angeles Center
11:16AM 36.1372 -115.0228 276° West 179 206 4,800 -1,260 Descending Los Angeles Center
11:17AM 36.1383 -115.0864 271° West 180 207 3,500 -1,020 Descending Los Angeles Center
11:18AM 36.1239 -115.1392 251° West 148 170 2,800 -720 Descending Los Angeles Center
11:20AM 36.0801 -115.1523 219° Southwest  Level Estimated
11:27AM 36.0801 -115.1523 219° Southwest  Level Estimated